Timeline UpdatesTrip UpdatesNews PostsPvt PostsTravel TipsAdmin PostsConv PostsFollowed PostsChat RequestsBlog PostsPNR Posts

Disclaimer
Search
 
 
Thu Jul 31, 2014 10:53:10 ISTHomeTrainsΣChainsAtlasPNRForumGalleryNewsFAQTripsMembersLoginFeedback
No Recent News for this Train
Other Trains in the News **new
Latest...
.
Sat Jul 30, 2011 (04:46AM)
⇐ Return Journey: Train# 57562

57561/Kacheguda Manmad Passenger (UnReserved)

Sep 11 2013 (10:15PM)
Change Departure Station:
Change Arrival Station:
Post a Train Travel TipPost a Train Travel Tip **new
Post a Comment/Question/Picture/VideoPost a Comment/Question/Picture/Video
Pantry/Catering
✕ NO Pantry Car
✓ Catering Avbl
RSA - Rake Sharing
Rake/Coach Composition
LOCO-SLR-GEN-GEN-GEN-GEN-GEN-GEN-GEN-GEN-GEN-GEN-GEN-GEN-SLR.
Loco
MLY WDM 2/3A or WDG 3A.
News    PNR    Forum    Time-Table    Availability    Fare Chart    Map    Arr/Dep History    Trips    Gallery    ΣChains    X/O    Timeline    
Travel Time: 8h 30m    55 halts    Distance: 307 km    Avg Speed: 36 km/hr
Type: Passenger
Zone: SCR/South Central
Departs @ 04:50 (Avg 5m late)
Platform# 1
SMTWTFS
Hyderabad Kacheguda/KCG 
Arrives @ 13:20 (Avg 1h 3m late)
Platform# ???
SMTWTFS
Purna Junction/PAU 

55 halts. 57 intermediate Stations between Hyderabad Kacheguda and Purna Junction

Show ALL intermediate Stations  Show Old Time-Table

#CodeStation NameX/OArrivesAvgDepartsAvgHaltPFDay#KmSpeedElevZoneAddress
1KCG»Hyderabad Kacheguda (5)»  -04:50+5110.058494mSCRHyderabad - 500027, Telangana
2VARVidya Nagar (2)  04:52+004:53+01m--11.944505mSCRHyderabad, Telangana
3JOOJamai Osmania (2)  04:55+004:56+01m--13.437515mSCRHyderabad, Telangana
4ATCArts College (2)X  04:57+504:58+51m--14.033521mSCRHyderabad, Telangana
5STPDSitafalmandi (4)  05:00+1005:01+101m215.180533mSCRSecunderabad, Telangana
6LGDHLalaguda Gate (2)  05:03+1405:04+141m--17.74543mSCRSecunderabad, Telangana
7MJFMalkajgiri (3)X  05:18+1505:19+171m318.727535mSCRSecunderabad, Telangana
8DYEDayanand Nagar (2)  05:21+2005:22+201m--19.635537mSCRSecunderabad, Telangana
9SFXSafilguda (2)  05:23+1505:24+151m--110.234544mSCRSecunderabad, Telangana
10RKORamakistapuram Gate (2)  05:27+1505:28+151m--111.933561mSCRSecunderabad, Telangana
11AMQAmmuguda Halt (2)  05:30+2405:31+241m--113.083569mSCRSecunderabad, Telangana
12CVBCavalry Barracks (3)  05:32+2105:33+211m3114.424575mSCRSecunderabad, Telangana
13ALWAlwal (2)  05:36+1805:37+181m--115.649580mSCRSecunderabad, Telangana
14BOZBolarum Bazar (2)  05:39+2205:40+221m--117.212584mSCRSecunderabad, Telangana
15BMOBolarum (3)X  05:48+1805:49+191m1118.929597mSCRSecunderabad, Telangana
16GDPLGundla Pochampally (1)X  06:00+1706:01+191m--124.277601mSCRRangareddy Dist., Telangana
17GWVGowdavalli (1)  06:05+2106:06+211m1129.423601mSCRRangareddy Dist., Telangana
18MEDMedchal (3)  06:15+1706:16+221m2132.879602mSCRRangareddy Dist., Telangana
19DBVDabilpur (1)  06:19+2106:20+211m1136.780611mSCRRangareddy Dist., Telangana
20KUCHKuchavaram Halt (1)X  06:25+1506:26+151m1143.320595mSCRRangareddy, Telangana
21MOBManoharabad (2)  06:34+2106:35+261m--146.0-593mSCRMedak Dist., Telangana
22PAPMPalata Potaram (1)  06:39+2706:40+271m1158.626522mSCRMedak Dist., Telangana
23BMPLBrahmanapalli (1)  06:44+2506:45+251m1160.321528mSCRMedak Dist., Telangana
24MEMasaipet (2)X  06:53+2606:54+301m--163.146520mSCRMedak Dist., Telangana
25SHANSrinivasa NagarX  06:58+3106:59+311m--166.232522mSCRMedak Dist., Telangana
26WDRWadiaram (2)  07:08+2907:09+311m--171.066547mSCRMedak Dist., Telangana
27MZLMirzapalli (1)  07:15+3307:16+351m1177.529530mSCRMedak Dist., Telangana
28AKEAkanapetX  07:38+2607:39+291m--188.337566mSCRNizamabad Dist, Telangana
29BKUBhiknur  07:49+2907:50+311m--194.461575mSCRNizamabad Dist., Telangana
30THPRTippapur (1)  07:54+2707:55+271m1198.555549mSCRNizamabad Dist., Telangana
31TMDTalmadla  08:01+3308:02+341m--1104.023559mSCRNizamabad Dist., Telangana
32KMCKamareddi (3)  08:28+1908:30+212m11114.075528mSCRNizamabad Dist., Telangana
33UPWUppalavai  08:39+2408:40+261m--1125.357529mSCRNizamabad Dist., Telangana
34SCPSirnapalli  08:51+2408:52+241m--1135.753456mSCRNizamabad Dist., Telangana
35IDLIndalvai (1)X  09:01+2509:02+291m11143.647439mSCRNizamabad Dist., Telangana
36DHPDichpalliX  09:14+2709:15+281m--1153.139424mSCRNizamabad Dist., Telangana
37NZBNizamabad (3)  09:35+2409:40+335m31165.947384mSCRNizamabad, Telangana
38JKMJankampet Junction (1)  09:48+3809:49+391m11172.163391mSCRJankampet Junction nizamabad dist., Telangana
39NVTNavipet (2)  09:58+4109:59+421m--1181.570374mSCRNizamabad Dist., Telangana
40FKBFakrabad (1)  10:05+2210:06+221m11188.618348mSCRNizamabad Dist., Telangana
41BSXBasar (2)X  10:28+3010:30+312m21195.359358mSCRDist Adilabad, Telangana
42DABDharmabad (2)  10:40+3310:41+361m--1205.178354mSCRDegaon, Maharashtra
43SQESamrla  10:46+2310:47+231m--1211.653360mSCRDharmabad, Maharashtra
44KEKKarkheli  10:55+3610:56+361m--1218.756358mSCRBiloli, Maharashtra
45BLSABolsa  11:04+3511:05+361m--1226.156361mSCRDharmabad, Maharashtra
46UMRIUmri (1)  11:14+3611:15+361m11234.694381mSCRHuzur Sahib Nanded, Maharashtra
47SLGHShelgaon Halt  11:20+2611:21+261m--1242.433378mSCRMudkhed, Maharashtra
48SVNSivungaon  11:29+3411:30+341m--1246.817395mSCRHuzur Sahib Nanded, Maharashtra
49MUEMudkhed Junction (4)  11:55+4311:57+452m--1254.061378mSCRMudkhed, Maharashtra
50MGCMugat  12:06+5212:07+551m--1263.239360mSCRHuzur Sahib Nanded, Maharashtra
51PARDPathradX  12:12+3612:13+361m--1266.543363mSCRHuzur Sahib Nanded, Maharashtra
52MTDIMaltekdi  12:23+5612:24+581m--1273.628362mSCRNanded, Maharashtra
53NEDHazur Sahib Nanded (4)X  12:30+4412:35+485m--1276.443366mSCRNanded, Maharashtra
54WNGWanegaon  12:44+3412:45+341m--1282.831371mSCRChudawa, Maharashtra
55LBGLimbgaon (2)X  12:54+1:0212:55+1:041m--1287.564390mSCRHuzur Sahib Nanded, Maharashtra
56CRUChudawa (1)X  13:04+1:0713:05+1:111m11297.140392mSCRHingoli, Maharashtra
57PAU•Purna Junction (4)•X  13:20+1:0313:25+1:115m--1307.052384mSCRPurna, Maharashtra
58MQLMirkhal  13:39+1:2013:40+1:221m--1319.136405mSCRPurna, Maharashtra
59PIZPingli (1)  13:49+1:2213:50+1:241m11324.551399mSCRParbhani, Maharashtra
60PBNParbhani Junction (3)X  14:03+5914:05+1:022m11335.573414mSCRParbhani 431401, Maharashtra
61PGPergaon  14:15+1:3114:16+1:331m--1347.673441mSCRParbhani, Maharashtra
62DAVDevalgaon Avchar  14:21+1:3814:22+1:391m--1353.679425mSCRParbhani, Maharashtra
63MVOManwath Road (2)  14:29+1:4114:30+1:431m--1362.854421mSCRParbhani, Maharashtra
64DGPPDhengli PimpalgaonX  14:36+1:5114:37+1:521m--1368.326407mSCRSatuna, Maharashtra
65SELUSelu (2)  14:59+1:3115:00+1:331m--1377.968436mSCRParbhani, Maharashtra
66SCOSatunaX  15:09+1:4115:10+1:421m--1388.153440mSCRSatona, Maharashtra
67UPRUsmanpur  15:19+1:4215:20+1:431m--1396.063444mSCRUsmanpur, Maharashtra
68PTUPartur (2)  15:29+1:4415:30+1:471m--1405.548465mSCRJalna, Maharashtra
69PDGParadgaon  15:39+1:2715:40+1:271m--1412.742454mSCRUsmanpur, Maharashtra
70RNERanjani  15:49+1:4415:50+1:451m--1418.975469mSCRJalna, Maharashtra
71KODIKodiX  15:59+1:4716:00+1:491m--1430.166473mSCRRanjani, Maharashtra
72SVDSarwariX  16:09+1:5116:10+1:511m--1440.18493mSCRRanjani, Maharashtra
73JJalna (3)  17:23+4317:25+442m--1449.881502mSCRJalna, Maharashtra
74BDUBadnapur  17:39+5817:40+1:021m--1468.871523mSCRJalna, Maharashtra
75KMVKarmad  17:53+1:0717:54+1:101m--1484.324567mSCRAurangabad, Maharashtra
76CTHChikalthanX  18:04+1:1418:05+1:151m--1488.2-582mSCRAurangabad, Maharashtra
77MKDDMukundwadi Halt (1)X  18:09+4618:10+461m11502.511580mSCRAurangabad, Maharashtra
78AWBAurangabad (5)X  19:05+2819:10+315m--1512.583561mSCRAurangabad 431001, Maharashtra
79DLBDaulatabad (1)  19:19+4519:20+461m11525.031575mSCRDaulatabad, Maharashtra
80POZPotul (1)  19:38+3819:39+381m11534.3141554mSCRLasur, Maharashtra
81LSRLasur (2)X  19:44+4319:45+451m--1546.0102536mSCRAurangabad, Maharashtra
82KAJGKaranjgaonX  19:51+5019:52+531m--1556.231523mSCRLasur, Maharashtra
83PSDParsoda  20:01+5320:02+571m--1560.962530mSCRRotegaon, Maharashtra
84RGORotegaonX  20:14+5620:15+571m--1573.2145547mSCRAurangabad, Maharashtra
85TRTarur  20:24+1:0320:25+1:041m--1595.011586mSCRTaru, Maharashtra
86NSLNagarsol (2)X  20:59+4221:00+501m--1601.211589mSCRDist. Nashik, Maharashtra
87ANKAnkai (3)X  21:54+3021:55+1:241m31611.111620mSCRDist. Nashik, Maharashtra
88MMRManmad Junction (6)  23:05+1:23-61624.0-580mCRManmad 423104, Maharashtra
Scroll to Top
Scroll to Bottom